createdAt,value
2017-09-24T00:02:14.660Z,13.30
2017-09-24T00:04:44.341Z,13.30
2017-09-24T00:07:14.043Z,13.40
2017-09-24T00:09:43.571Z,13.30
2017-09-24T00:12:13.067Z,13.40
2017-09-24T00:14:42.823Z,13.40
2017-09-24T00:17:12.502Z,13.30
2017-09-24T00:19:42.209Z,13.30
2017-09-24T00:22:11.918Z,13.30
2017-09-24T00:24:41.437Z,13.30
2017-09-24T00:27:10.963Z,13.40
2017-09-24T00:29:40.311Z,13.30
2017-09-24T00:32:09.814Z,13.40
2017-09-24T00:34:39.337Z,13.40
2017-09-24T00:37:09.010Z,13.40
2017-09-24T00:39:39.503Z,13.40
2017-09-24T00:42:09.191Z,13.40
2017-09-24T00:44:38.903Z,13.40
2017-09-24T00:47:08.572Z,13.40
2017-09-24T00:49:38.855Z,13.40
2017-09-24T00:54:45.136Z,13.30
2017-09-24T00:57:14.152Z,13.30
2017-09-24T00:59:42.935Z,13.40
2017-09-24T01:02:12.440Z,13.40
2017-09-24T01:04:42.103Z,13.30
2017-09-24T01:07:11.611Z,13.30
2017-09-24T01:09:40.933Z,13.40
2017-09-24T01:12:10.090Z,13.40
2017-09-24T01:14:40.557Z,13.40
2017-09-24T01:17:10.038Z,13.30
2017-09-24T01:19:39.013Z,13.40
2017-09-24T01:22:07.798Z,13.30
2017-09-24T01:24:37.876Z,13.30
2017-09-24T01:27:07.203Z,13.30
2017-09-24T01:29:36.741Z,13.30
2017-09-24T01:32:05.871Z,13.30
2017-09-24T01:34:35.003Z,13.30
2017-09-24T01:37:04.749Z,13.40
2017-09-24T01:39:33.529Z,13.30
2017-09-24T01:42:03.648Z,13.40
2017-09-24T01:44:32.430Z,13.40
2017-09-24T01:47:01.565Z,13.40
2017-09-24T01:49:30.708Z,13.40
2017-09-24T01:52:00.949Z,13.40
2017-09-24T01:54:29.542Z,13.40
2017-09-24T01:56:58.555Z,13.30
2017-09-24T01:59:27.570Z,13.40
2017-09-24T02:01:57.258Z,13.30
2017-09-24T02:04:26.711Z,13.40
2017-09-24T02:06:56.972Z,13.40
2017-09-24T02:09:26.644Z,13.40
2017-09-24T02:11:57.090Z,13.40
2017-09-24T02:14:27.509Z,13.40
2017-09-24T02:16:57.963Z,13.40
2017-09-24T02:19:27.636Z,13.30
2017-09-24T02:21:57.318Z,13.40
2017-09-24T02:24:26.980Z,13.40
2017-09-24T02:26:56.654Z,13.40
2017-09-24T02:29:26.351Z,13.40
2017-09-24T02:31:56.039Z,13.40
2017-09-24T02:34:25.796Z,13.40
2017-09-24T02:36:56.215Z,13.40
2017-09-24T02:39:26.677Z,13.40
2017-09-24T02:41:56.362Z,13.40
2017-09-24T02:44:26.642Z,13.40
2017-09-24T02:46:56.302Z,13.40
2017-09-24T02:49:25.997Z,13.40
2017-09-24T02:51:56.453Z,13.40
2017-09-24T02:54:26.141Z,13.40
2017-09-24T02:56:56.578Z,13.50
2017-09-24T02:59:26.280Z,13.50
2017-09-24T03:01:56.736Z,13.50
2017-09-24T03:04:26.429Z,13.50
2017-09-24T03:06:56.101Z,13.50
2017-09-24T03:09:26.575Z,13.50
2017-09-24T03:11:56.241Z,13.50
2017-09-24T03:14:25.944Z,13.50
2017-09-24T03:16:55.604Z,13.50
2017-09-24T03:19:25.297Z,13.50
2017-09-24T03:21:55.737Z,13.50
2017-09-24T03:24:25.444Z,13.50
2017-09-24T03:26:55.129Z,13.60
2017-09-24T03:29:24.837Z,13.50
2017-09-24T03:31:54.509Z,13.50
2017-09-24T03:34:24.226Z,13.50
2017-09-24T03:36:53.903Z,13.50
2017-09-24T03:39:23.590Z,13.60
2017-09-24T03:41:53.276Z,13.50
2017-09-24T03:44:22.981Z,13.60
2017-09-24T03:46:52.664Z,13.60
2017-09-24T03:49:22.335Z,13.60
2017-09-24T03:51:52.780Z,13.60
2017-09-24T03:54:22.446Z,13.60
2017-09-24T03:56:52.125Z,13.60
2017-09-24T03:59:21.797Z,13.60
2017-09-24T04:01:52.245Z,13.60
2017-09-24T04:04:21.910Z,13.60
2017-09-24T04:06:51.596Z,13.60
2017-09-24T04:09:21.253Z,13.60
2017-09-24T04:11:50.954Z,13.60
2017-09-24T04:14:20.608Z,13.60
2017-09-24T04:16:50.297Z,13.60
2017-09-24T04:19:19.969Z,13.60
2017-09-24T04:21:50.428Z,13.60
2017-09-24T04:24:20.098Z,13.60
2017-09-24T04:26:50.552Z,13.60
2017-09-24T04:29:20.981Z,13.70
2017-09-24T04:31:51.455Z,13.70
2017-09-24T04:34:21.112Z,13.70
2017-09-24T04:36:51.580Z,13.70
2017-09-24T04:39:21.264Z,13.70
2017-09-24T04:41:50.947Z,13.80
2017-09-24T04:44:20.609Z,13.70
2017-09-24T04:46:50.287Z,13.80
2017-09-24T04:49:20.704Z,13.80
2017-09-24T04:51:51.154Z,13.80
2017-09-24T04:54:20.843Z,13.80
2017-09-24T04:56:51.145Z,13.90
2017-09-24T04:59:20.822Z,13.90
2017-09-24T05:01:50.509Z,13.90
2017-09-24T05:04:20.202Z,13.90
2017-09-24T05:06:50.652Z,13.90
2017-09-24T05:09:20.444Z,13.90
2017-09-24T05:11:50.885Z,13.80
2017-09-24T05:14:20.560Z,13.80
2017-09-24T05:16:50.256Z,13.90
2017-09-24T05:19:20.140Z,13.90
2017-09-24T05:21:49.824Z,13.90
2017-09-24T05:24:19.484Z,13.90
2017-09-24T05:26:49.987Z,14.00
2017-09-24T05:29:19.658Z,14.00
2017-09-24T05:31:50.128Z,14.00
2017-09-24T05:34:19.800Z,14.00
2017-09-24T05:36:49.512Z,14.00
2017-09-24T05:39:19.975Z,14.10
2017-09-24T05:41:49.648Z,14.10
2017-09-24T05:44:19.337Z,14.10
2017-09-24T05:46:49.785Z,14.20
2017-09-24T05:49:20.234Z,14.30
2017-09-24T05:51:49.912Z,14.20
2017-09-24T05:54:20.369Z,14.30
2017-09-24T05:56:50.778Z,14.20
2017-09-24T05:59:20.468Z,14.20
2017-09-24T06:01:50.915Z,14.20
2017-09-24T06:04:20.614Z,14.20
2017-09-24T06:06:51.099Z,14.30
2017-09-24T06:09:20.806Z,14.20
2017-09-24T06:11:50.499Z,14.30
2017-09-24T06:14:20.190Z,14.30
2017-09-24T06:16:49.852Z,14.30
2017-09-24T06:19:19.568Z,14.30
2017-09-24T06:21:49.275Z,14.30
2017-09-24T06:24:18.989Z,14.30
2017-09-24T06:26:48.653Z,14.40
2017-09-24T06:29:18.371Z,14.40
2017-09-24T06:31:48.054Z,14.50
2017-09-24T06:34:17.782Z,14.50
2017-09-24T06:36:47.459Z,14.60
2017-09-24T06:39:17.967Z,14.70
2017-09-24T06:41:47.729Z,14.70
2017-09-24T06:44:17.432Z,14.70
2017-09-24T06:46:47.122Z,14.70
2017-09-24T06:49:17.561Z,14.70
2017-09-24T06:51:48.077Z,14.80
2017-09-24T06:54:18.318Z,14.70
2017-09-24T06:56:48.005Z,14.70
2017-09-24T06:59:18.457Z,14.70
2017-09-24T07:01:48.135Z,14.70
2017-09-24T07:04:18.729Z,14.80
2017-09-24T07:06:48.420Z,14.70
2017-09-24T07:09:18.101Z,14.80
2017-09-24T07:11:48.572Z,14.70
2017-09-24T07:14:18.383Z,14.70
2017-09-24T07:16:48.901Z,14.70
2017-09-24T07:19:18.713Z,14.70
2017-09-24T07:21:49.011Z,14.80
2017-09-24T07:24:18.731Z,14.80
2017-09-24T07:26:48.441Z,14.80
2017-09-24T07:29:18.108Z,14.80
2017-09-24T07:31:47.800Z,14.80
2017-09-24T07:34:17.691Z,14.90
2017-09-24T07:36:47.421Z,14.90
2017-09-24T07:39:17.117Z,14.90
2017-09-24T07:41:52.755Z,14.90
2017-09-24T07:44:22.432Z,14.80
2017-09-24T07:46:52.967Z,14.80
2017-09-24T07:49:22.662Z,14.80
2017-09-24T07:51:52.370Z,14.80
2017-09-24T07:54:22.060Z,14.80
2017-09-24T07:56:51.544Z,14.90
2017-09-24T07:59:21.305Z,15.00
2017-09-24T08:01:51.820Z,15.00
2017-09-24T08:04:21.541Z,15.10
2017-09-24T08:06:51.215Z,15.10
2017-09-24T08:09:21.039Z,15.00
2017-09-24T08:11:51.591Z,15.00
2017-09-24T08:14:21.441Z,15.00
2017-09-24T08:16:51.869Z,15.00
2017-09-24T08:19:21.565Z,15.00
2017-09-24T08:21:52.016Z,15.10
2017-09-24T08:24:21.839Z,15.10
2017-09-24T08:26:51.556Z,15.00
2017-09-24T08:29:21.287Z,15.00
2017-09-24T08:31:51.022Z,15.00
2017-09-24T08:34:20.765Z,15.00
2017-09-24T08:36:50.515Z,15.10
2017-09-24T08:39:20.852Z,15.10
2017-09-24T08:41:51.317Z,15.10
2017-09-24T08:44:21.030Z,15.10
2017-09-24T08:46:50.528Z,15.20
2017-09-24T08:49:21.030Z,15.20
2017-09-24T08:51:50.705Z,15.10
2017-09-24T08:54:20.425Z,15.20
2017-09-24T08:56:50.161Z,15.20
2017-09-24T08:59:20.687Z,15.30
2017-09-24T09:01:50.194Z,15.20
2017-09-24T09:04:19.896Z,15.40
2017-09-24T09:06:49.588Z,15.40
2017-09-24T09:09:19.939Z,15.50
2017-09-24T09:11:50.545Z,15.40
2017-09-24T09:14:20.381Z,15.40
2017-09-24T09:16:50.082Z,15.60
2017-09-24T09:19:29.409Z,15.60
2017-09-24T09:22:00.242Z,15.70
2017-09-24T09:24:29.635Z,15.70
2017-09-24T09:26:59.099Z,15.80
2017-09-24T09:29:28.480Z,15.90
2017-09-24T09:31:57.725Z,16.10
2017-09-24T09:34:33.186Z,16.30
2017-09-24T09:37:02.493Z,16.30
2017-09-24T09:39:31.881Z,16.30
2017-09-24T09:42:01.308Z,16.30
2017-09-24T09:44:42.514Z,16.30
2017-09-24T09:47:31.873Z,16.20
2017-09-24T09:50:01.877Z,16.20
2017-09-24T09:52:31.359Z,16.10
2017-09-24T09:55:00.784Z,16.10
2017-09-24T09:57:30.213Z,16.20
2017-09-24T10:00:00.367Z,16.10
2017-09-24T10:02:29.806Z,16.10
2017-09-24T10:04:59.205Z,16.10
2017-09-24T10:07:40.134Z,16.10
2017-09-24T10:10:17.828Z,16.00
2017-09-24T10:12:48.107Z,16.10
2017-09-24T10:15:17.306Z,16.00
2017-09-24T10:17:46.532Z,16.00
2017-09-24T10:20:16.170Z,15.90
2017-09-24T10:22:46.622Z,16.00
2017-09-24T10:25:16.308Z,16.00
2017-09-24T10:27:45.765Z,16.00
2017-09-24T10:30:27.760Z,16.00
2017-09-24T10:32:57.054Z,16.00
2017-09-24T10:35:26.948Z,16.00
2017-09-24T10:37:56.176Z,16.00
2017-09-24T10:40:25.516Z,16.10
2017-09-24T10:42:56.131Z,16.00
2017-09-24T10:45:25.944Z,16.00
2017-09-24T10:47:55.396Z,16.00
2017-09-24T10:50:24.826Z,16.20
2017-09-24T10:52:54.228Z,16.20
2017-09-24T10:55:24.038Z,16.10
2017-09-24T10:57:54.243Z,16.30
2017-09-24T11:00:24.078Z,16.30
2017-09-24T11:02:53.765Z,16.50
2017-09-24T11:05:23.454Z,16.50
2017-09-24T11:07:52.849Z,16.30
2017-09-24T11:10:23.295Z,16.20
2017-09-24T11:12:52.705Z,16.20
2017-09-24T11:15:22.109Z,16.10
2017-09-24T11:17:51.790Z,15.90
2017-09-24T11:20:22.259Z,15.90
2017-09-24T11:22:51.682Z,15.90
2017-09-24T11:25:21.368Z,15.90
2017-09-24T11:27:51.052Z,15.70
2017-09-24T11:30:21.595Z,15.60
2017-09-24T11:32:51.359Z,15.60
2017-09-24T11:35:21.823Z,15.60
2017-09-24T11:37:51.549Z,15.60
2017-09-24T11:40:21.235Z,15.60
2017-09-24T11:42:50.625Z,15.60
2017-09-24T11:45:21.096Z,15.50
2017-09-24T11:47:50.770Z,15.50
2017-09-24T11:50:21.217Z,15.50
2017-09-24T11:52:50.903Z,15.50
2017-09-24T11:55:21.364Z,15.50
2017-09-24T11:57:51.036Z,15.40
2017-09-24T12:00:20.725Z,15.50
2017-09-24T12:02:50.235Z,15.50
2017-09-24T12:05:19.709Z,15.50
2017-09-24T12:07:49.396Z,15.60
2017-09-24T12:10:19.085Z,15.70
2017-09-24T12:12:49.648Z,15.70
2017-09-24T12:15:19.329Z,15.60
2017-09-24T12:17:48.737Z,15.70
2017-09-24T12:20:19.192Z,15.60
2017-09-24T12:22:48.886Z,15.60
2017-09-24T12:25:18.587Z,15.60
2017-09-24T12:27:47.980Z,15.60
2017-09-24T12:30:18.488Z,15.70
2017-09-24T12:32:48.157Z,15.70
2017-09-24T12:35:17.572Z,15.70
2017-09-24T12:37:46.977Z,15.70
2017-09-24T12:40:16.669Z,15.80
2017-09-24T12:42:46.377Z,15.80
2017-09-24T12:45:15.768Z,15.80
2017-09-24T12:47:45.457Z,15.80
2017-09-24T12:50:14.894Z,15.90
2017-09-24T12:52:44.306Z,16.10
2017-09-24T12:55:13.705Z,16.10
2017-09-24T12:57:42.936Z,16.20
2017-09-24T13:00:12.922Z,16.30
2017-09-24T13:02:42.160Z,16.30
2017-09-24T13:05:11.984Z,16.30
2017-09-24T13:07:41.402Z,16.30
2017-09-24T13:10:10.805Z,16.30
2017-09-24T13:12:40.220Z,16.20
2017-09-24T13:15:09.650Z,16.30
2017-09-24T13:17:39.088Z,16.40
2017-09-24T13:20:09.259Z,16.50
2017-09-24T13:22:38.853Z,16.40
2017-09-24T13:25:11.256Z,16.40
2017-09-24T13:27:40.672Z,16.30
2017-09-24T13:30:10.070Z,16.30
2017-09-24T13:32:39.484Z,16.30
2017-09-24T13:35:08.884Z,16.20
2017-09-24T13:37:38.349Z,16.10
2017-09-24T13:40:07.757Z,16.00
2017-09-24T13:42:37.217Z,16.00
2017-09-24T13:45:06.867Z,16.00
2017-09-24T13:47:35.919Z,15.90
2017-09-24T13:50:05.905Z,15.80
2017-09-24T13:52:35.621Z,15.80
2017-09-24T13:55:05.030Z,15.90
2017-09-24T13:57:34.142Z,16.00
2017-09-24T14:00:03.637Z,16.10
2017-09-24T14:02:33.138Z,16.10
2017-09-24T14:05:02.608Z,16.20
2017-09-24T14:07:31.996Z,16.30
2017-09-24T14:10:01.448Z,16.40
2017-09-24T14:12:30.869Z,16.50
2017-09-24T14:15:01.046Z,16.80
2017-09-24T14:17:30.478Z,16.80
2017-09-24T14:19:59.886Z,17.00
2017-09-24T14:22:30.054Z,17.30
2017-09-24T14:24:58.778Z,17.30
2017-09-24T14:27:28.195Z,17.70
2017-09-24T14:29:58.386Z,20.40
2017-09-24T14:32:27.444Z,20.40
2017-09-24T14:34:56.860Z,21.50
2017-09-24T14:37:26.252Z,22.30
2017-09-24T14:39:55.677Z,23.30
2017-09-24T14:42:25.078Z,23.70
2017-09-24T14:44:54.489Z,24.20
2017-09-24T14:47:23.883Z,24.90
2017-09-24T14:49:53.294Z,25.40
2017-09-24T14:52:22.501Z,25.10
2017-09-24T14:54:52.689Z,25.10
2017-09-24T14:57:22.088Z,25.10
2017-09-24T14:59:51.510Z,25.40
2017-09-24T15:02:20.936Z,25.00
2017-09-24T15:04:50.928Z,24.40
2017-09-24T15:07:20.142Z,24.30
2017-09-24T15:09:49.385Z,23.80
2017-09-24T15:12:18.580Z,24.10
2017-09-24T15:14:47.837Z,24.50
2017-09-24T15:17:16.894Z,24.50
2017-09-24T15:19:45.750Z,25.00
2017-09-24T15:22:14.958Z,25.10
2017-09-24T15:24:44.168Z,24.60
2017-09-24T15:27:13.576Z,23.30
2017-09-24T15:29:42.783Z,22.30
2017-09-24T15:32:12.241Z,21.60
2017-09-24T15:34:42.389Z,19.90
2017-09-24T15:37:11.806Z,19.80
2017-09-24T15:39:41.198Z,19.50
2017-09-24T15:42:10.770Z,19.20
2017-09-24T15:44:40.743Z,19.00
2017-09-24T15:47:10.524Z,19.00
2017-09-24T15:49:39.725Z,19.00
2017-09-24T15:52:08.954Z,18.80
2017-09-24T15:54:38.358Z,18.70
2017-09-24T15:57:07.776Z,18.60
2017-09-24T15:59:37.188Z,18.50
2017-09-24T16:02:06.614Z,18.30
2017-09-24T16:04:36.774Z,18.00
2017-09-24T16:07:06.226Z,18.00
2017-09-24T16:09:35.611Z,17.90
2017-09-24T16:12:04.832Z,17.90
2017-09-24T16:14:34.996Z,17.60
2017-09-24T16:17:04.241Z,17.60
2017-09-24T16:19:34.399Z,17.50
2017-09-24T16:22:03.806Z,17.50
2017-09-24T16:24:33.218Z,17.40
2017-09-24T16:27:02.627Z,17.50
2017-09-24T16:29:32.024Z,17.40
2017-09-24T16:32:01.444Z,17.30
2017-09-24T16:34:30.669Z,17.30
2017-09-24T16:37:00.082Z,17.30
2017-09-24T16:39:29.489Z,17.20
2017-09-24T16:41:58.988Z,17.20
2017-09-24T16:44:28.380Z,17.10
2017-09-24T16:46:57.580Z,17.10
2017-09-24T16:49:27.001Z,17.10
2017-09-24T16:51:56.390Z,17.00
2017-09-24T16:54:25.609Z,17.00
2017-09-24T16:56:55.796Z,17.00
2017-09-24T16:59:25.253Z,17.00
2017-09-24T17:01:54.637Z,16.90
2017-09-24T17:04:23.890Z,16.90
2017-09-24T17:06:54.038Z,16.80
2017-09-24T17:09:23.460Z,16.80
2017-09-24T17:11:52.874Z,16.80
2017-09-24T17:14:22.306Z,16.80
2017-09-24T17:16:51.710Z,16.80
2017-09-24T17:19:21.118Z,16.80
2017-09-24T17:21:50.521Z,16.90
2017-09-24T17:24:19.947Z,16.90
2017-09-24T17:26:49.410Z,16.90
2017-09-24T17:29:18.858Z,16.80
2017-09-24T17:31:48.254Z,16.80
2017-09-24T17:34:17.465Z,16.70
2017-09-24T17:36:47.664Z,16.70
2017-09-24T17:39:17.065Z,16.60
2017-09-24T17:41:46.460Z,16.60
2017-09-24T17:44:15.884Z,16.60
2017-09-24T17:46:45.283Z,16.50
2017-09-24T17:49:14.698Z,16.50
2017-09-24T17:51:43.922Z,16.40
2017-09-24T17:54:13.154Z,16.40
2017-09-24T17:56:42.554Z,16.30
2017-09-24T17:59:11.788Z,16.30
2017-09-24T18:01:40.996Z,16.30
2017-09-24T18:04:11.179Z,16.30
2017-09-24T18:06:40.592Z,16.30
2017-09-24T18:09:09.993Z,16.30
2017-09-24T18:11:39.410Z,16.30
2017-09-24T18:14:08.818Z,16.20
2017-09-24T18:16:38.214Z,16.20
2017-09-24T18:19:07.652Z,16.20
2017-09-24T18:21:36.863Z,16.10
2017-09-24T18:24:06.261Z,16.20
2017-09-24T18:26:35.689Z,16.20
2017-09-24T18:29:10.693Z,16.20
2017-09-24T18:31:40.861Z,16.10
2017-09-24T18:34:10.297Z,16.10
2017-09-24T18:36:39.694Z,16.10
2017-09-24T18:39:09.091Z,16.10
2017-09-24T18:41:38.788Z,16.10
2017-09-24T18:44:08.184Z,16.10
2017-09-24T18:46:37.305Z,16.10
2017-09-24T18:49:06.854Z,16.10
2017-09-24T18:51:36.265Z,16.10
2017-09-24T18:54:05.669Z,16.10
2017-09-24T18:56:36.129Z,16.10
2017-09-24T18:59:05.540Z,16.10
2017-09-24T19:01:34.965Z,16.10
2017-09-24T19:04:04.381Z,16.00
2017-09-24T19:06:34.592Z,16.00
2017-09-24T19:09:03.628Z,16.00
2017-09-24T19:11:33.037Z,16.00
2017-09-24T19:14:02.433Z,15.90
2017-09-24T19:16:31.905Z,16.00
2017-09-24T19:19:01.394Z,15.90
2017-09-24T19:21:30.613Z,15.90
2017-09-24T19:24:00.589Z,15.90
2017-09-24T19:26:29.813Z,15.90
2017-09-24T19:28:59.209Z,15.90
2017-09-24T19:31:28.729Z,15.90
2017-09-24T19:33:58.116Z,15.80
2017-09-24T19:36:27.610Z,15.90
2017-09-24T19:38:57.062Z,15.90
2017-09-24T19:41:26.485Z,15.90
2017-09-24T19:43:56.672Z,15.80
2017-09-24T19:46:25.902Z,15.80
2017-09-24T19:48:55.304Z,15.80
2017-09-24T19:51:24.702Z,15.80
2017-09-24T19:53:54.397Z,15.80
2017-09-24T19:56:23.609Z,15.80
2017-09-24T19:58:53.026Z,15.80
2017-09-24T20:01:22.715Z,15.80
2017-09-24T20:03:52.158Z,15.70
2017-09-24T20:06:21.836Z,15.60
2017-09-24T20:08:51.256Z,15.60
2017-09-24T20:11:20.693Z,15.60
2017-09-24T20:13:51.250Z,15.50
2017-09-24T20:16:20.928Z,15.50
2017-09-24T20:18:50.637Z,15.50
2017-09-24T20:21:20.043Z,15.50
2017-09-24T20:23:49.367Z,15.60
2017-09-24T20:26:18.857Z,15.60
2017-09-24T20:28:48.597Z,15.60
2017-09-24T20:31:18.263Z,15.60
2017-09-24T20:33:47.692Z,15.60
2017-09-24T20:36:17.397Z,15.50
2017-09-24T20:38:47.060Z,15.60
2017-09-24T20:41:16.272Z,15.60
2017-09-24T20:43:46.707Z,15.50
2017-09-24T20:46:17.159Z,15.60
2017-09-24T20:48:46.837Z,15.50
2017-09-24T20:51:16.534Z,15.60
2017-09-24T20:53:51.807Z,15.50
2017-09-24T20:56:21.532Z,15.60
2017-09-24T20:58:51.965Z,15.60
2017-09-24T21:01:22.420Z,15.60
2017-09-24T21:03:51.907Z,15.60
2017-09-24T21:06:21.348Z,15.70
2017-09-24T21:08:51.544Z,15.70
2017-09-24T21:11:21.229Z,15.70
2017-09-24T21:13:51.684Z,15.70
2017-09-24T21:16:21.421Z,15.70
2017-09-24T21:18:50.664Z,15.70
2017-09-24T21:21:20.076Z,15.70
2017-09-24T21:23:49.591Z,15.70
2017-09-24T21:26:19.015Z,15.70
2017-09-24T21:28:48.783Z,15.70
2017-09-24T21:31:18.537Z,15.60
2017-09-24T21:33:47.961Z,15.60
2017-09-24T21:36:17.647Z,15.60
2017-09-24T21:38:47.330Z,15.60
2017-09-24T21:41:16.768Z,15.60
2017-09-24T21:43:46.946Z,15.60
2017-09-24T21:46:16.515Z,15.60
2017-09-24T21:48:46.197Z,15.60
2017-09-24T21:51:15.420Z,15.50
2017-09-24T21:53:44.978Z,15.40
2017-09-24T21:56:14.657Z,15.40
2017-09-24T21:58:44.079Z,15.40
2017-09-24T22:01:13.478Z,15.40
2017-09-24T22:03:43.172Z,15.40
2017-09-24T22:06:13.612Z,15.30
2017-09-24T22:08:43.236Z,15.30
2017-09-24T22:11:16.042Z,15.30
2017-09-24T22:13:45.783Z,15.30
2017-09-24T22:16:16.248Z,15.30
2017-09-24T22:18:45.962Z,15.40
2017-09-24T22:21:15.465Z,15.40
2017-09-24T22:23:45.158Z,15.40
2017-09-24T22:26:15.904Z,15.30
2017-09-24T22:28:45.127Z,15.30
2017-09-24T22:31:14.571Z,15.40
2017-09-24T22:33:44.258Z,15.30
2017-09-24T22:36:13.923Z,15.20
2017-09-24T22:38:44.395Z,15.30
2017-09-24T22:41:14.146Z,15.20
2017-09-24T22:43:43.821Z,15.30
2017-09-24T22:46:13.513Z,15.30
2017-09-24T22:48:43.204Z,15.30
2017-09-24T22:51:12.903Z,15.30
2017-09-24T22:53:42.418Z,15.30
2017-09-24T22:56:11.839Z,15.40
2017-09-24T22:58:41.548Z,15.30
2017-09-24T23:01:11.260Z,15.30
2017-09-24T23:03:41.029Z,15.40
2017-09-24T23:06:10.217Z,15.40
2017-09-24T23:08:40.482Z,15.40
2017-09-24T23:11:10.215Z,15.40
2017-09-24T23:13:39.893Z,15.40
2017-09-24T23:16:09.432Z,15.40
2017-09-24T23:18:39.599Z,15.30
2017-09-24T23:21:10.094Z,15.30
2017-09-24T23:23:39.764Z,15.30
2017-09-24T23:26:09.521Z,15.40
2017-09-24T23:28:40.008Z,15.30
2017-09-24T23:31:09.428Z,15.30
2017-09-24T23:33:39.137Z,15.30
2017-09-24T23:36:08.808Z,15.30
2017-09-24T23:38:38.528Z,15.30
2017-09-24T23:41:08.212Z,15.30
2017-09-24T23:43:38.721Z,15.40
2017-09-24T23:46:08.417Z,15.40
2017-09-24T23:48:38.121Z,15.40
2017-09-24T23:51:07.834Z,15.40
2017-09-24T23:53:37.834Z,15.40
2017-09-24T23:56:07.192Z,15.30
2017-09-24T23:58:36.592Z,15.40
